Cosco Nagoya — 3ESJ8 — position and weather

sailwx.info

Track history (hours):
 
Tides and Currents Weather Stations Pressure Air Temp Water Temp Dewpoint Dewpoint Depression Visibility Wind Speed Wind Dir Waves Ship Positions

Cosco Nagoya

Last reported at 2016-Dec-08 20:28 UTC. Time now 2016-Dec-09 07:51 UTC.
Position N 01°59' E 102°14'.

Length 260 m; draft 12 m.

Type: Cargo ship. MMSI: 370320000.

Date/timePositionNaut miles runAvg speedWind from/ knotsBaromVisibWave heightAir tempDewpointWater temp
2016-Dec-08 20:28N 01°59' E 102°14'1719.1
2016-Dec-08 19:34N 01°51' E 102°30'1918.9
2016-Dec-08 18:33N 01°43' E 102°47'7217.1
2016-Dec-08 14:20N 01°12' E 103°52'3 4.5
2016-Dec-08 13:33N 01°16' E 103°51'1 0.7
2016-Dec-08 12:33N 01°16' E 103°50'0 0.0
2016-Dec-08 11:27N 01°16' E 103°50'0 0.0
2016-Dec-08 10:33N 01°16' E 103°50'0 0.0
2016-Dec-08 09:33N 01°16' E 103°50'0 0.0
2016-Dec-08 08:33N 01°16' E 103°50'0 0.0
2016-Dec-08 07:27N 01°16' E 103°50'0 0.0
2016-Dec-08 06:33N 01°16' E 103°50'0 0.0
2016-Dec-08 05:27N 01°16' E 103°50'0 0.0
2016-Dec-08 04:27N 01°16' E 103°50'0 0.0
2016-Dec-08 03:33N 01°16' E 103°50'0 0.0
2016-Dec-08 02:33N 01°16' E 103°50'0 0.0
2016-Dec-08 01:27N 01°16' E 103°50'0 0.0
2016-Dec-08 00:33N 01°16' E 103°50'0 0.0
2016-Dec-07 23:33N 01°16' E 103°50'0 0.1
2016-Dec-07 22:33N 01°16' E 103°50'1 1.1
2016-Dec-07 21:33N 01°15' E 103°51'6 5.9
2016-Dec-07 20:33N 01°15' E 103°57'1413.6
2016-Dec-07 19:30N 01°17' E 104°11'  
2016-Dec-03 23:24N 22°34' E 113°43'13 1.2
2016-Dec-03 12:33N 22°21' E 113°47'17 1.9
2016-Dec-03 03:32N 22°18' E 114°06'2 1.9
2016-Dec-03 02:25N 22°19' E 114°07'0 0.0
2016-Dec-03 01:31N 22°19' E 114°07'0 0.0
2016-Dec-03 00:25N 22°19' E 114°07'0 0.0
2016-Dec-02 23:31N 22°19' E 114°07'0 0.0
2016-Dec-02 22:31N 22°19' E 114°07'0 0.2
2016-Dec-02 21:23N 22°20' E 114°07'61814.7
2016-Dec-01 03:23N 29°18' E 122°33'1917.8
2016-Dec-01 02:19N 29°38' E 122°32'1316.6
2016-Dec-01 01:32N 29°44' E 122°19'1111.5
2016-Dec-01 00:33N 29°53' E 122°11'1313.1
2016-Nov-30 23:34N 29°58' E 121°57'6 5.5
2016-Nov-30 22:31N 29°57' E 121°50'0 0.0
2016-Nov-30 17:33N 29°57' E 121°50'0 0.0
2016-Nov-30 14:07N 29°57' E 121°50'0 0.0
2016-Nov-30 13:30N 29°57' E 121°50'0 0.0
2016-Nov-30 12:27N 29°57' E 121°50'0 0.2
2016-Nov-30 11:29N 29°57' E 121°50'3 2.9
2016-Nov-30 10:29N 29°58' E 121°53'0 0.2
2016-Nov-30 09:24N 29°58' E 121°54'1212.2
2016-Nov-30 08:25N 29°56' E 122°07'1920.8
2016-Nov-30 07:31N 29°44' E 122°24'5 3.6
2016-Nov-30 06:12N 29°42' E 122°29'5 6.1
2016-Nov-30 05:26N 29°39' E 122°32'2 2.6
2016-Nov-30 04:33N 29°37' E 122°30'0 0.0
2016-Nov-29 19:20N 29°37' E 122°30'4 5.7
2016-Nov-29 18:33N 29°39' E 122°34'103 7.7
2016-Nov-29 05:04N 31°16' E 121°52'713.0
2016-Nov-29 04:32N 31°19' E 121°44'9 9.4
2016-Nov-29 03:33N 31°23' E 121°34'0 0.1
2016-Nov-29 02:33N 31°23' E 121°34'0 0.0
2016-Nov-29 01:31N 31°23' E 121°34'0 0.0
2016-Nov-29 00:25N 31°23' E 121°34'0 0.0
2016-Nov-28 23:31N 31°23' E 121°34'0 0.0
2016-Nov-28 22:31N 31°23' E 121°34'0 0.0
2016-Nov-28 21:31N 31°23' E 121°34'0 0.0
2016-Nov-28 20:31N 31°23' E 121°34'  
Track history (hours):
 
Tides and Currents Weather Stations Pressure Air Temp Water Temp Dewpoint Dewpoint Depression Visibility Wind Speed Wind Dir Waves Ship Positions

Cosco Nagoya

Last reported at 2016-Dec-08 20:28 UTC. Time now 2016-Dec-09 07:51 UTC.
Position N 01°59' E 102°14'.

Length 260 m; draft 12 m.

Type: Cargo ship. MMSI: 370320000.

Date/timePositionNaut miles runAvg speedWind from/ knotsBaromVisibWave heightAir tempDewpointWater temp
2016-Dec-08 20:28N 01°59' E 102°14'1719.1
2016-Dec-08 19:34N 01°51' E 102°30'1918.9
2016-Dec-08 18:33N 01°43' E 102°47'7217.1
2016-Dec-08 14:20N 01°12' E 103°52'3 4.5
2016-Dec-08 13:33N 01°16' E 103°51'1 0.7
2016-Dec-08 12:33N 01°16' E 103°50'0 0.0
2016-Dec-08 11:27N 01°16' E 103°50'0 0.0
2016-Dec-08 10:33N 01°16' E 103°50'0 0.0
2016-Dec-08 09:33N 01°16' E 103°50'0 0.0
2016-Dec-08 08:33N 01°16' E 103°50'0 0.0
2016-Dec-08 07:27N 01°16' E 103°50'0 0.0
2016-Dec-08 06:33N 01°16' E 103°50'0 0.0
2016-Dec-08 05:27N 01°16' E 103°50'0 0.0
2016-Dec-08 04:27N 01°16' E 103°50'0 0.0
2016-Dec-08 03:33N 01°16' E 103°50'0 0.0
2016-Dec-08 02:33N 01°16' E 103°50'0 0.0
2016-Dec-08 01:27N 01°16' E 103°50'0 0.0
2016-Dec-08 00:33N 01°16' E 103°50'0 0.0
2016-Dec-07 23:33N 01°16' E 103°50'0 0.1
2016-Dec-07 22:33N 01°16' E 103°50'1 1.1
2016-Dec-07 21:33N 01°15' E 103°51'6 5.9
2016-Dec-07 20:33N 01°15' E 103°57'1413.6
2016-Dec-07 19:30N 01°17' E 104°11'  
2016-Dec-03 23:24N 22°34' E 113°43'13 1.2
2016-Dec-03 12:33N 22°21' E 113°47'17 1.9
2016-Dec-03 03:32N 22°18' E 114°06'2 1.9
2016-Dec-03 02:25N 22°19' E 114°07'0 0.0
2016-Dec-03 01:31N 22°19' E 114°07'0 0.0
2016-Dec-03 00:25N 22°19' E 114°07'0 0.0
2016-Dec-02 23:31N 22°19' E 114°07'0 0.0
2016-Dec-02 22:31N 22°19' E 114°07'0 0.2
2016-Dec-02 21:23N 22°20' E 114°07'61814.7
2016-Dec-01 03:23N 29°18' E 122°33'1917.8
2016-Dec-01 02:19N 29°38' E 122°32'1316.6
2016-Dec-01 01:32N 29°44' E 122°19'1111.5
2016-Dec-01 00:33N 29°53' E 122°11'1313.1
2016-Nov-30 23:34N 29°58' E 121°57'6 5.5
2016-Nov-30 22:31N 29°57' E 121°50'0 0.0
2016-Nov-30 17:33N 29°57' E 121°50'0 0.0
2016-Nov-30 14:07N 29°57' E 121°50'0 0.0
2016-Nov-30 13:30N 29°57' E 121°50'0 0.0
2016-Nov-30 12:27N 29°57' E 121°50'0 0.2
2016-Nov-30 11:29N 29°57' E 121°50'3 2.9
2016-Nov-30 10:29N 29°58' E 121°53'0 0.2
2016-Nov-30 09:24N 29°58' E 121°54'1212.2
2016-Nov-30 08:25N 29°56' E 122°07'1920.8
2016-Nov-30 07:31N 29°44' E 122°24'5 3.6
2016-Nov-30 06:12N 29°42' E 122°29'5 6.1
2016-Nov-30 05:26N 29°39' E 122°32'2 2.6
2016-Nov-30 04:33N 29°37' E 122°30'0 0.0
2016-Nov-29 19:20N 29°37' E 122°30'4 5.7
2016-Nov-29 18:33N 29°39' E 122°34'103 7.7
2016-Nov-29 05:04N 31°16' E 121°52'713.0
2016-Nov-29 04:32N 31°19' E 121°44'9 9.4
2016-Nov-29 03:33N 31°23' E 121°34'0 0.1
2016-Nov-29 02:33N 31°23' E 121°34'0 0.0
2016-Nov-29 01:31N 31°23' E 121°34'0 0.0
2016-Nov-29 00:25N 31°23' E 121°34'0 0.0
2016-Nov-28 23:31N 31°23' E 121°34'0 0.0
2016-Nov-28 22:31N 31°23' E 121°34'0 0.0
2016-Nov-28 21:31N 31°23' E 121°34'0 0.0
2016-Nov-28 20:31N 31°23' E 121°34'  

Dump ship's entire track history